createdAt,value
2022-09-25T00:01:22.783Z,98160.28
2022-09-25T00:03:49.319Z,98144.31
2022-09-25T00:06:22.836Z,98150.16
2022-09-25T00:08:49.346Z,98158.44
2022-09-25T00:11:21.180Z,98158.94
2022-09-25T00:13:47.741Z,98152.03
2022-09-25T00:16:15.959Z,98152.53
2022-09-25T00:19:01.105Z,98145.34
2022-09-25T00:21:31.426Z,98147.75
2022-09-25T00:24:00.421Z,98148.56
2022-09-25T00:26:28.727Z,98148.81
2022-09-25T00:28:55.218Z,98144.81
2022-09-25T00:31:24.489Z,98151.47
2022-09-25T00:33:51.982Z,98147.47
2022-09-25T00:36:19.186Z,98148.00
2022-09-25T00:38:48.348Z,98141.59
2022-09-25T00:41:16.520Z,98143.97
2022-09-25T00:43:48.781Z,98142.88
2022-09-25T00:46:37.112Z,98134.91
2022-09-25T00:49:10.043Z,98135.19
2022-09-25T00:51:38.839Z,98125.88
2022-09-25T00:54:05.389Z,98135.97
2022-09-25T00:56:36.207Z,98138.09
2022-09-25T00:59:02.656Z,98139.16
2022-09-25T01:01:29.222Z,98138.63
2022-09-25T01:03:56.070Z,98143.13
2022-09-25T01:06:22.560Z,98143.41
2022-09-25T01:08:49.014Z,98145.28
2022-09-25T01:11:16.334Z,98142.63
2022-09-25T01:13:42.780Z,98147.94
2022-09-25T01:16:19.934Z,98143.91
2022-09-25T01:18:53.106Z,98144.72
2022-09-25T01:21:31.664Z,98146.59
2022-09-25T01:24:18.997Z,98136.44
2022-09-25T01:27:06.954Z,98140.44
2022-09-25T01:29:48.507Z,98146.84
2022-09-25T01:32:33.538Z,98143.63
2022-09-25T01:35:02.554Z,98149.47
2022-09-25T01:37:33.856Z,98154.78
2022-09-25T01:40:08.301Z,98149.16
2022-09-25T01:42:39.469Z,98149.41
2022-09-25T01:45:07.625Z,98159.25
2022-09-25T01:47:38.484Z,98154.19
2022-09-25T01:50:10.181Z,98160.81
2022-09-25T01:52:41.698Z,98154.72
2022-09-25T01:55:10.691Z,98156.56
2022-09-25T01:57:53.708Z,98158.44
2022-09-25T02:00:22.140Z,98156.03
2022-09-25T02:03:01.133Z,98147.28
2022-09-25T02:05:35.083Z,98152.81
2022-09-25T02:08:07.692Z,98153.91
2022-09-25T02:10:35.767Z,98148.03
2022-09-25T02:13:13.410Z,98145.13
2022-09-25T02:15:43.236Z,98144.84
2022-09-25T02:18:30.334Z,98142.19
2022-09-25T02:21:02.050Z,98145.13
2022-09-25T02:23:40.804Z,98151.00
2022-09-25T02:26:09.137Z,98143.84
2022-09-25T02:28:35.964Z,98148.88
2022-09-25T02:31:03.867Z,98143.84
2022-09-25T02:33:30.363Z,98151.25
2022-09-25T02:35:58.816Z,98152.06
2022-09-25T02:38:25.279Z,98149.66
2022-09-25T02:41:03.788Z,98159.22
2022-09-25T02:43:30.081Z,98159.50
2022-09-25T02:46:18.615Z,98155.25
2022-09-25T02:48:56.688Z,98156.56
2022-09-25T02:51:35.389Z,98156.03
2022-09-25T02:54:23.072Z,98156.28
2022-09-25T02:57:06.567Z,98150.16
2022-09-25T02:59:51.679Z,98155.50
2022-09-25T03:02:18.250Z,98154.69
2022-09-25T03:04:44.758Z,98154.69
2022-09-25T03:07:11.200Z,98152.31
2022-09-25T03:09:37.677Z,98150.44
2022-09-25T03:12:07.210Z,98153.91
2022-09-25T03:14:33.678Z,98151.25
2022-09-25T03:17:00.835Z,98137.41
2022-09-25T03:19:28.496Z,98143.25
2022-09-25T03:21:55.009Z,98148.84
2022-09-25T03:24:21.529Z,98154.69
2022-09-25T03:26:48.003Z,98143.25
2022-09-25T03:29:14.823Z,98151.50
2022-09-25T03:31:42.625Z,98140.06
2022-09-25T03:34:09.677Z,98151.75
2022-09-25T03:36:36.204Z,98147.25
2022-09-25T03:39:02.709Z,98154.66
2022-09-25T03:41:30.799Z,98147.75
2022-09-25T03:43:57.787Z,98146.97
2022-09-25T03:46:34.096Z,98146.16
2022-09-25T03:49:00.770Z,98145.38
2022-09-25T03:51:28.119Z,98142.94
2022-09-25T03:53:54.690Z,98141.09
2022-09-25T03:56:23.419Z,98136.84
2022-09-25T03:58:51.089Z,98140.28
2022-09-25T04:01:19.402Z,98136.84
2022-09-25T04:03:47.316Z,98141.34
2022-09-25T04:06:18.351Z,98145.88
2022-09-25T04:08:45.331Z,98142.41
2022-09-25T04:11:12.324Z,98143.22
2022-09-25T04:13:40.619Z,98139.50
2022-09-25T04:16:08.216Z,98140.56
2022-09-25T04:18:34.853Z,98137.09
2022-09-25T04:21:02.081Z,98135.25
2022-09-25T04:23:28.530Z,98134.44
2022-09-25T04:25:55.000Z,98130.97
2022-09-25T04:28:22.403Z,98134.44
2022-09-25T04:30:49.206Z,98132.84
2022-09-25T04:33:34.725Z,98132.06
2022-09-25T04:36:01.267Z,98129.63
2022-09-25T04:38:28.061Z,98129.63
2022-09-25T04:40:54.663Z,98125.41
2022-09-25T04:43:21.174Z,98124.91
2022-09-25T04:45:48.026Z,98122.84
2022-09-25T04:48:14.548Z,98122.63
2022-09-25T04:50:47.475Z,98121.06
2022-09-25T04:53:13.934Z,98129.56
2022-09-25T04:55:40.416Z,98130.91
2022-09-25T04:58:06.868Z,98129.84
2022-09-25T05:00:33.430Z,98131.72
2022-09-25T05:03:01.860Z,98133.88
2022-09-25T05:05:30.478Z,98139.19
2022-09-25T05:07:58.305Z,98133.34
2022-09-25T05:10:30.190Z,98133.59
2022-09-25T05:13:03.006Z,98128.56
2022-09-25T05:15:31.413Z,98127.47
2022-09-25T05:18:13.565Z,98132.28
2022-09-25T05:20:40.022Z,98135.75
2022-09-25T05:23:06.483Z,98133.88
2022-09-25T05:25:33.001Z,98129.88
2022-09-25T05:27:59.783Z,98132.28
2022-09-25T05:30:26.790Z,98137.88
2022-09-25T05:32:53.354Z,98135.50
2022-09-25T05:35:20.963Z,98135.78
2022-09-25T05:37:47.429Z,98141.38
2022-09-25T05:40:15.653Z,98132.31
2022-09-25T05:42:44.103Z,98139.00
2022-09-25T05:45:14.487Z,98137.91
2022-09-25T05:47:40.987Z,98141.66
2022-09-25T05:50:09.154Z,98141.66
2022-09-25T05:52:35.703Z,98142.97
2022-09-25T05:55:03.417Z,98140.56
2022-09-25T05:57:33.304Z,98136.31
2022-09-25T05:59:59.833Z,98133.09
2022-09-25T06:02:26.402Z,98138.94
2022-09-25T06:04:53.283Z,98130.16
2022-09-25T06:07:19.971Z,98133.91
2022-09-25T06:09:46.436Z,98132.03
2022-09-25T06:12:12.896Z,98137.63
2022-09-25T06:14:40.907Z,98133.38
2022-09-25T06:17:07.903Z,98135.25
2022-09-25T06:19:35.542Z,98131.75
2022-09-25T06:22:02.029Z,98128.84
2022-09-25T06:24:28.470Z,98126.19
2022-09-25T06:26:54.922Z,98131.75
2022-09-25T06:29:21.367Z,98120.84
2022-09-25T06:31:47.852Z,98120.84
2022-09-25T06:34:14.320Z,98127.75
2022-09-25T06:36:40.777Z,98127.22
2022-09-25T06:39:07.305Z,98125.91
2022-09-25T06:41:33.770Z,98121.91
2022-09-25T06:44:00.291Z,98123.75
2022-09-25T06:46:26.798Z,98127.22
2022-09-25T06:48:54.193Z,98129.63
2022-09-25T06:51:21.382Z,98125.91
2022-09-25T06:53:47.859Z,98125.63
2022-09-25T06:56:14.343Z,98135.47
2022-09-25T06:58:40.778Z,98138.94
2022-09-25T07:01:10.407Z,98135.19
2022-09-25T07:03:46.374Z,98126.97
2022-09-25T07:06:13.945Z,98136.03
2022-09-25T07:08:40.470Z,98134.97
2022-09-25T07:11:07.180Z,98147.16
2022-09-25T07:13:34.993Z,98133.47
2022-09-25T07:16:03.223Z,98130.00
2022-09-25T07:18:29.730Z,98131.06
2022-09-25T07:21:04.155Z,98131.91
2022-09-25T07:23:31.279Z,98131.88
2022-09-25T07:26:06.500Z,98135.03
2022-09-25T07:28:32.963Z,98132.84
2022-09-25T07:30:59.460Z,98139.88
2022-09-25T07:33:25.923Z,98136.66
2022-09-25T07:35:52.662Z,98146.78
2022-09-25T07:38:19.497Z,98149.84
2022-09-25T07:40:46.268Z,98144.78
2022-09-25T07:43:12.780Z,98152.72
2022-09-25T07:45:39.323Z,98150.53
2022-09-25T07:48:06.267Z,98153.47
2022-09-25T07:50:32.886Z,98146.06
2022-09-25T07:52:59.349Z,98154.22
2022-09-25T07:55:28.109Z,98146.38
2022-09-25T07:57:56.943Z,98154.69
2022-09-25T08:00:23.396Z,98160.31
2022-09-25T08:02:59.465Z,98163.00
2022-09-25T08:05:26.444Z,98161.72
2022-09-25T08:07:53.562Z,98160.09
2022-09-25T08:10:20.137Z,98156.69
2022-09-25T08:12:46.579Z,98163.06
2022-09-25T08:15:14.693Z,98158.81
2022-09-25T08:17:41.559Z,98157.03
2022-09-25T08:20:08.358Z,98167.06
2022-09-25T08:22:34.892Z,98157.97
2022-09-25T08:25:03.009Z,98159.28
2022-09-25T08:27:30.280Z,98167.56
2022-09-25T08:29:56.762Z,98161.16
2022-09-25T08:32:23.210Z,98172.34
2022-09-25T08:34:50.000Z,98173.38
2022-09-25T08:37:17.135Z,98179.75
2022-09-25T08:39:43.574Z,98180.78
2022-09-25T08:42:18.686Z,98175.44
2022-09-25T08:45:02.781Z,98179.38
2022-09-25T08:47:53.017Z,98171.34
2022-09-25T08:50:21.746Z,98170.94
2022-09-25T08:52:50.391Z,98172.59
2022-09-25T08:55:48.203Z,98171.06
2022-09-25T08:58:27.275Z,98179.22
2022-09-25T09:00:54.597Z,98169.31
2022-09-25T09:03:22.755Z,98171.66
2022-09-25T09:05:51.702Z,98169.75
2022-09-25T09:08:20.382Z,98166.97
2022-09-25T09:10:50.786Z,98174.84
2022-09-25T09:13:45.968Z,98167.91
2022-09-25T09:16:41.273Z,98175.19
2022-09-25T09:19:09.162Z,98172.03
2022-09-25T09:21:51.757Z,98173.13
2022-09-25T09:24:36.858Z,98171.25
2022-09-25T09:27:40.859Z,98164.88
2022-09-25T09:30:29.720Z,98168.34
2022-09-25T09:32:59.085Z,98158.84
2022-09-25T09:35:47.815Z,98173.88
2022-09-25T09:38:21.316Z,98164.88
2022-09-25T09:41:14.225Z,98169.06
2022-09-25T09:44:19.164Z,98172.84
2022-09-25T09:47:17.411Z,98170.94
2022-09-25T09:49:53.403Z,98165.78
2022-09-25T09:52:22.349Z,98171.22
2022-09-25T09:55:07.000Z,98171.78
2022-09-25T09:57:44.588Z,98167.34
2022-09-25T10:00:15.725Z,98160.47
2022-09-25T10:02:56.951Z,98159.44
2022-09-25T10:05:42.605Z,98164.78
2022-09-25T10:08:09.666Z,98154.97
2022-09-25T10:10:39.569Z,98159.75
2022-09-25T10:13:18.801Z,98156.56
2022-09-25T10:15:48.973Z,98154.09
2022-09-25T10:18:15.713Z,98155.19
2022-09-25T10:20:44.949Z,98160.50
2022-09-25T10:23:31.551Z,98159.16
2022-09-25T10:25:58.169Z,98153.81
2022-09-25T10:28:30.381Z,98163.16
2022-09-25T10:30:56.977Z,98161.81
2022-09-25T10:33:27.315Z,98163.13
2022-09-25T10:35:55.088Z,98170.03
2022-09-25T10:38:28.497Z,98164.72
2022-09-25T10:41:18.192Z,98151.66
2022-09-25T10:44:00.032Z,98158.31
2022-09-25T10:46:49.063Z,98159.41
2022-09-25T10:49:44.672Z,98151.94
2022-09-25T10:52:12.725Z,98148.00
2022-09-25T10:54:44.449Z,98146.16
2022-09-25T10:57:34.592Z,98153.66
2022-09-25T11:00:01.709Z,98155.00
2022-09-25T11:02:40.422Z,98154.41
2022-09-25T11:05:08.967Z,98141.00
2022-09-25T11:07:35.441Z,98146.84
2022-09-25T11:10:01.901Z,98138.03
2022-09-25T11:12:29.825Z,98146.59
2022-09-25T11:15:02.351Z,98138.63
2022-09-25T11:17:42.099Z,98135.16
2022-09-25T11:20:22.641Z,98144.50
2022-09-25T11:23:35.738Z,98140.69
2022-09-25T11:26:18.818Z,98138.34
2022-09-25T11:28:52.182Z,98141.41
2022-09-25T11:31:28.533Z,98143.16
2022-09-25T11:34:17.687Z,98136.50
2022-09-25T11:36:56.147Z,98141.88
2022-09-25T11:39:45.870Z,98130.94
2022-09-25T11:42:17.072Z,98126.69
2022-09-25T11:44:54.274Z,98127.00
2022-09-25T11:47:33.190Z,98122.44
2022-09-25T11:49:59.636Z,98121.44
2022-09-25T11:52:42.140Z,98111.56
2022-09-25T11:55:17.649Z,98107.31
2022-09-25T11:57:54.395Z,98111.03
2022-09-25T12:00:56.201Z,98113.66
2022-09-25T12:03:37.632Z,98111.00
2022-09-25T12:06:27.262Z,98108.34
2022-09-25T12:09:13.577Z,98102.25
2022-09-25T12:12:08.604Z,98091.31
2022-09-25T12:15:00.685Z,98099.31
2022-09-25T12:17:29.997Z,98094.50
2022-09-25T12:20:05.349Z,98090.78
2022-09-25T12:23:00.186Z,98099.28
2022-09-25T12:25:51.524Z,98086.00
2022-09-25T12:28:34.184Z,98092.66
2022-09-25T12:31:07.180Z,98094.53
2022-09-25T12:33:52.426Z,98093.72
2022-09-25T12:36:49.252Z,98097.44
2022-09-25T12:39:43.732Z,98097.16
2022-09-25T12:42:23.451Z,98092.38
2022-09-25T12:45:09.833Z,98096.63
2022-09-25T12:47:41.337Z,98085.69
2022-09-25T12:50:29.414Z,98085.44
2022-09-25T12:52:59.809Z,98082.50
2022-09-25T12:55:31.447Z,98079.84
2022-09-25T12:58:28.591Z,98081.44
2022-09-25T13:01:01.452Z,98069.72
2022-09-25T13:04:07.296Z,98070.00
2022-09-25T13:06:47.855Z,98066.25
2022-09-25T13:09:51.275Z,98072.66
2022-09-25T13:12:35.072Z,98064.38
2022-09-25T13:15:12.973Z,98069.44
2022-09-25T13:17:40.194Z,98063.31
2022-09-25T13:20:28.667Z,98055.59
2022-09-25T13:23:01.562Z,98055.59
2022-09-25T13:25:28.039Z,98058.78
2022-09-25T13:27:54.524Z,98047.63
2022-09-25T13:30:23.706Z,98054.25
2022-09-25T13:32:51.613Z,98049.72
2022-09-25T13:35:20.002Z,98065.19
2022-09-25T13:37:46.594Z,98051.34
2022-09-25T13:40:42.546Z,98060.94
2022-09-25T13:43:24.016Z,98051.63
2022-09-25T13:46:21.382Z,98054.00
2022-09-25T13:48:48.154Z,98042.81
2022-09-25T13:51:20.601Z,98054.06
2022-09-25T13:54:03.298Z,98050.53
2022-09-25T13:56:41.852Z,98051.59
2022-09-25T13:59:13.604Z,98050.31
2022-09-25T14:01:51.196Z,98040.44
2022-09-25T14:04:32.215Z,98043.63
2022-09-25T14:07:19.400Z,98037.50
2022-09-25T14:09:48.552Z,98025.53
2022-09-25T14:12:45.162Z,98032.44
2022-09-25T14:15:21.797Z,98020.72
2022-09-25T14:17:49.293Z,98019.66
2022-09-25T14:20:42.015Z,98018.00
2022-09-25T14:23:20.489Z,98016.41
2022-09-25T14:25:47.586Z,98019.88
2022-09-25T14:28:25.337Z,98014.56
2022-09-25T14:31:14.497Z,98016.69
2022-09-25T14:34:07.929Z,98015.34
2022-09-25T14:36:40.747Z,98018.28
2022-09-25T14:39:29.430Z,98015.63
2022-09-25T14:41:55.950Z,98013.50
2022-09-25T14:44:41.212Z,98010.34
2022-09-25T14:47:09.869Z,98010.34
2022-09-25T14:49:39.076Z,98007.41
2022-09-25T14:52:08.056Z,98009.53
2022-09-25T14:54:37.885Z,98011.66
2022-09-25T14:57:05.949Z,98007.41
2022-09-25T14:59:39.707Z,98013.25
2022-09-25T15:02:16.552Z,98015.38
2022-09-25T15:04:43.036Z,98006.06
2022-09-25T15:07:15.865Z,98008.19
2022-09-25T15:09:49.349Z,98010.88
2022-09-25T15:12:18.827Z,98014.88
2022-09-25T15:15:10.552Z,98012.72
2022-09-25T15:17:55.653Z,98007.41
2022-09-25T15:20:23.338Z,98010.84
2022-09-25T15:23:01.766Z,98010.06
2022-09-25T15:25:37.345Z,98011.03
2022-09-25T15:30:35.849Z,98006.25
2022-09-25T15:33:02.324Z,98018.84
2022-09-25T15:35:29.401Z,98013.78
2022-09-25T15:38:02.680Z,98011.38
2022-09-25T15:40:29.241Z,98015.91
2022-09-25T15:42:56.010Z,98019.94
2022-09-25T15:45:44.313Z,98021.78
2022-09-25T15:48:36.054Z,98010.88
2022-09-25T15:51:19.160Z,98008.72
2022-09-25T15:53:55.644Z,98001.78
2022-09-25T15:56:27.608Z,97997.25
2022-09-25T15:59:06.828Z,97986.59
2022-09-25T16:01:52.954Z,97980.75
2022-09-25T16:04:42.435Z,97986.38
2022-09-25T16:07:35.351Z,97981.28
2022-09-25T16:10:13.916Z,97986.38
2022-09-25T16:12:41.139Z,97981.56
2022-09-25T16:15:26.909Z,97983.72
2022-09-25T16:18:01.395Z,97981.03
2022-09-25T16:20:34.785Z,97981.84
2022-09-25T16:23:04.134Z,97987.97
2022-09-25T16:25:37.057Z,97981.56
2022-09-25T16:28:16.025Z,97984.22
2022-09-25T16:30:49.777Z,97982.88
2022-09-25T16:33:26.786Z,97984.69
2022-09-25T16:36:11.624Z,97989.16
2022-09-25T16:38:40.240Z,97986.88
2022-09-25T16:41:09.620Z,97980.81
2022-09-25T16:43:39.147Z,97980.81
2022-09-25T16:46:14.327Z,97970.16
2022-09-25T16:48:41.286Z,97974.44
2022-09-25T16:51:14.157Z,97970.16
2022-09-25T16:53:40.920Z,97972.03
2022-09-25T16:56:08.078Z,97981.84
2022-09-25T16:58:37.427Z,97969.69
2022-09-25T17:01:05.062Z,97969.50
2022-09-25T17:03:49.573Z,97972.25
2022-09-25T17:06:19.813Z,97976.47
2022-09-25T17:08:46.559Z,97975.22
2022-09-25T17:11:13.284Z,97976.56
2022-09-25T17:13:39.740Z,97985.84
2022-09-25T17:16:06.467Z,97987.47
2022-09-25T17:18:33.042Z,97984.81
2022-09-25T17:21:00.399Z,97989.06
2022-09-25T17:23:27.076Z,97978.41
2022-09-25T17:26:07.397Z,97977.88
2022-09-25T17:28:33.876Z,97973.34
2022-09-25T17:31:01.025Z,97969.38
2022-09-25T17:33:27.575Z,97970.94
2022-09-25T17:36:04.752Z,97973.34
2022-09-25T17:38:34.062Z,97980.53
2022-09-25T17:41:05.596Z,97979.50
2022-09-25T17:43:32.697Z,97971.75
2022-09-25T17:46:00.035Z,97970.16
2022-09-25T17:48:31.135Z,97968.56
2022-09-25T17:51:01.716Z,97970.16
2022-09-25T17:53:29.801Z,97965.91
2022-09-25T17:55:57.104Z,97975.50
2022-09-25T17:58:24.254Z,97973.91
2022-09-25T18:00:51.505Z,97969.63
2022-09-25T18:03:18.275Z,97974.97
2022-09-25T18:05:44.980Z,97962.97
2022-09-25T18:08:11.980Z,97969.34
2022-09-25T18:10:38.680Z,97968.28
2022-09-25T18:13:06.146Z,97972.53
2022-09-25T18:15:36.756Z,97967.19
2022-09-25T18:18:04.073Z,97963.44
2022-09-25T18:20:49.462Z,97964.53
2022-09-25T18:23:15.945Z,97972.50
2022-09-25T18:25:42.493Z,97973.06
2022-09-25T18:28:09.105Z,97966.66
2022-09-25T18:30:38.015Z,97969.59
2022-09-25T18:33:04.695Z,97958.13
2022-09-25T18:35:31.221Z,97971.19
2022-09-25T18:37:58.127Z,97970.66
2022-09-25T18:40:24.680Z,97967.72
2022-09-25T18:42:51.836Z,97967.72
2022-09-25T18:45:18.355Z,97966.41
2022-09-25T18:47:46.480Z,97968.00
2022-09-25T18:50:18.096Z,97961.34
2022-09-25T18:52:46.922Z,97957.38
2022-09-25T18:55:13.395Z,97960.31
2022-09-25T18:57:40.685Z,97953.38
2022-09-25T19:00:07.732Z,97954.16
2022-09-25T19:02:38.849Z,97956.03
2022-09-25T19:05:06.397Z,97957.91
2022-09-25T19:07:32.843Z,97949.41
2022-09-25T19:10:01.894Z,97952.84
2022-09-25T19:12:28.361Z,97951.28
2022-09-25T19:14:54.819Z,97957.09
2022-09-25T19:17:21.290Z,97947.81
2022-09-25T19:19:47.760Z,97936.63
2022-09-25T19:22:18.843Z,97942.75
2022-09-25T19:24:46.053Z,97944.31
2022-09-25T19:27:13.315Z,97938.22
2022-09-25T19:29:39.986Z,97941.66
2022-09-25T19:32:07.134Z,97945.41
2022-09-25T19:34:33.649Z,97945.69
2022-09-25T19:37:00.188Z,97943.81
2022-09-25T19:39:26.889Z,97943.28
2022-09-25T19:41:53.449Z,97937.41
2022-09-25T19:44:20.097Z,97937.69
2022-09-25T19:46:46.712Z,97940.34
2022-09-25T19:49:14.324Z,97930.78
2022-09-25T19:51:40.857Z,97937.44
2022-09-25T19:54:08.074Z,97929.16
2022-09-25T19:56:40.333Z,97926.25
2022-09-25T19:59:08.734Z,97928.38
2022-09-25T20:01:35.449Z,97924.91
2022-09-25T20:04:06.621Z,97926.28
2022-09-25T20:06:34.717Z,97929.97
2022-09-25T20:09:01.215Z,97926.78
2022-09-25T20:11:27.739Z,97929.44
2022-09-25T20:13:54.344Z,97921.47
2022-09-25T20:16:24.121Z,97919.09
2022-09-25T20:18:53.540Z,97916.44
2022-09-25T20:21:22.902Z,97913.22
2022-09-25T20:23:53.489Z,97907.91
2022-09-25T20:26:20.041Z,97903.66
2022-09-25T20:28:46.708Z,97910.03
2022-09-25T20:31:14.585Z,97897.53
2022-09-25T20:33:42.242Z,97900.72
2022-09-25T20:36:10.828Z,97903.66
2022-09-25T20:38:37.282Z,97900.44
2022-09-25T20:41:06.475Z,97894.59
2022-09-25T20:43:32.964Z,97899.13
2022-09-25T20:46:04.009Z,97894.06
2022-09-25T20:48:31.751Z,97894.56
2022-09-25T20:50:58.294Z,97899.91
2022-09-25T20:53:25.228Z,97896.69
2022-09-25T20:55:52.087Z,97892.16
2022-09-25T20:58:18.585Z,97892.72
2022-09-25T21:00:45.520Z,97885.81
2022-09-25T21:03:12.978Z,97885.00
2022-09-25T21:05:39.535Z,97895.66
2022-09-25T21:08:06.092Z,97895.66
2022-09-25T21:10:40.391Z,97887.91
2022-09-25T21:13:06.926Z,97887.91
2022-09-25T21:15:33.414Z,97893.00
2022-09-25T21:18:00.004Z,97892.16
2022-09-25T21:20:26.991Z,97889.50
2022-09-25T21:22:54.394Z,97893.25
2022-09-25T21:25:20.926Z,97885.25
2022-09-25T21:27:47.688Z,97884.75
2022-09-25T21:30:14.153Z,97881.28
2022-09-25T21:32:40.875Z,97883.94
2022-09-25T21:35:07.510Z,97885.81
2022-09-25T21:37:34.402Z,97882.09
2022-09-25T21:40:00.938Z,97875.97
2022-09-25T21:42:29.637Z,97878.88
2022-09-25T21:44:57.028Z,97875.41
2022-09-25T21:47:23.566Z,97871.44
2022-09-25T21:49:50.055Z,97865.34
2022-09-25T21:52:16.511Z,97861.84
2022-09-25T21:54:42.967Z,97870.91
2022-09-25T21:57:09.429Z,97870.09
2022-09-25T21:59:35.940Z,97869.81
2022-09-25T22:02:02.661Z,97869.81
2022-09-25T22:04:29.150Z,97865.56
2022-09-25T22:06:57.467Z,97860.25
2022-09-25T22:09:24.261Z,97862.91
2022-09-25T22:11:51.050Z,97860.25
2022-09-25T22:14:18.143Z,97861.31
2022-09-25T22:16:47.035Z,97859.47
2022-09-25T22:19:25.012Z,97859.75
2022-09-25T22:21:52.138Z,97851.75
2022-09-25T22:24:18.811Z,97850.97
2022-09-25T22:26:46.102Z,97850.69
2022-09-25T22:29:12.834Z,97857.06
2022-09-25T22:31:43.136Z,97844.03
2022-09-25T22:34:21.185Z,97846.69
2022-09-25T22:36:47.923Z,97846.97
2022-09-25T22:39:15.441Z,97842.72
2022-09-25T22:41:41.980Z,97846.97
2022-09-25T22:44:08.460Z,97844.81
2022-09-25T22:46:35.022Z,97848.31
2022-09-25T22:49:01.630Z,97851.22
2022-09-25T22:51:28.128Z,97849.63
2022-09-25T22:53:54.580Z,97849.91
2022-09-25T22:56:28.865Z,97843.78
2022-09-25T22:59:00.281Z,97834.97
2022-09-25T23:01:31.079Z,97835.25
2022-09-25T23:03:59.270Z,97843.78
2022-09-25T23:06:26.612Z,97835.00
2022-09-25T23:09:02.035Z,97836.06
2022-09-25T23:11:28.555Z,97836.06
2022-09-25T23:14:06.511Z,97827.28
2022-09-25T23:16:33.208Z,97826.50
2022-09-25T23:18:59.799Z,97836.34
2022-09-25T23:21:26.756Z,97833.69
2022-09-25T23:23:56.924Z,97822.25
2022-09-25T23:26:23.392Z,97825.69
2022-09-25T23:28:49.855Z,97814.50
2022-09-25T23:31:16.568Z,97816.13
2022-09-25T23:33:43.315Z,97811.63
2022-09-25T23:36:22.735Z,97805.75
2022-09-25T23:38:49.734Z,97802.28
2022-09-25T23:41:26.849Z,97804.72
2022-09-25T23:43:53.983Z,97802.28
2022-09-25T23:46:21.593Z,97791.16
2022-09-25T23:48:48.170Z,97792.22
2022-09-25T23:51:15.199Z,97784.47
2022-09-25T23:53:42.006Z,97776.22
2022-09-25T23:56:09.580Z,97774.91
2022-09-25T23:58:36.057Z,97776.00
